Impacts TAF Board
For situational awareness. Not to be used for flight planning purposes.
IDs:

KSTL - St Louis/Lambert Int, MO, US

Issued at 1728 UTC 26 Oct 2021
Updated at 1756 UTC 26 Oct 2021
Potential Impact None Slight Moderate High
Time<<27/06Z 27/07Z 27/08Z 27/09Z 27/10Z 27/11Z 27/12Z 27/13Z 27/14Z 27/15Z 27/16Z 27/17Z 27/18Z>>
Type PRVL PRVL PRVL PRVL PRVL PRVL PRVL PRVL PRVL PRVL PRVL PRVL PRVL
VIS >6 >6 >6 >6 >6 >6 >6 >6 >6 >6 >6 >6 >6
CIG -- -- -- -- -- -- -- -- -- 250 250 250 250
Cover FEW FEW FEW FEW FEW FEW FEW FEW FEW BKN BKN BKN BKN
FltCat VFR VFR VFR VFR VFR VFR VFR VFR VFR VFR VFR VFR VFR
WX -- -- -- -- -- -- -- -- -- -- -- -- --
WDir 110 110 110 110 110 110 110 110 110 130 130 130 130
WSpd 7 7 7 7 7 7 7 7 7 10 10 10 10
WGst -- -- -- -- -- -- -- -- -- 20 20 20 20
Raw TAF
KSTL 261728Z 2618/2724 11007KT P6SM FEW250
  FM271500 13010G20KT P6SM BKN250


METAR Board
Radar Display
Forecast Discussion
For situational awareness. Not to be used for flight planning purposes.